createdAt,value
2023-05-10T02:48:20.803Z,0.857143
2023-05-10T02:49:21.244Z,0.857143
2023-05-10T02:50:22.501Z,0.857143
2023-05-10T02:51:22.562Z,1.71429
2023-05-10T02:52:23.272Z,1.71429
2023-05-10T02:53:24.479Z,2.5
2023-05-10T02:54:25.060Z,2.5
2023-05-10T02:55:25.210Z,3.35714
2023-05-10T02:56:26.529Z,4.21429
2023-05-10T02:57:27.634Z,5
2023-05-10T02:58:28.286Z,5.85714
2023-05-10T02:59:30.508Z,6.71429
2023-05-10T03:00:30.843Z,8.35714
2023-05-10T03:01:32.055Z,9.21429
2023-05-10T03:02:33.948Z,10.8571
2023-05-10T03:03:34.426Z,12.5
2023-05-10T03:04:35.244Z,14.2143
2023-05-10T03:05:35.929Z,16.7143
2023-05-10T03:06:37.513Z,19.2143
2023-05-10T03:07:38.493Z,21.7143
2023-05-10T03:08:39.339Z,24.2143
2023-05-10T03:09:39.968Z,27.5
2023-05-10T03:10:41.646Z,30
2023-05-10T03:11:43.851Z,33.3571
2023-05-10T03:12:44.476Z,37.5
2023-05-10T03:13:45.848Z,40.8571
2023-05-10T03:14:47.210Z,45
2023-05-10T03:15:49.160Z,50
2023-05-10T03:16:50.798Z,55
2023-05-10T03:17:51.505Z,60.8571
2023-05-10T03:18:53.705Z,65.8571
2023-05-10T03:19:55.635Z,71.7143
2023-05-10T03:20:55.976Z,78.3571
2023-05-10T03:21:56.530Z,85
2023-05-10T03:22:59.041Z,91.7143
2023-05-10T03:23:58.876Z,99.2143
2023-05-10T03:25:00.219Z,108.357
2023-05-10T03:26:01.287Z,116.714
2023-05-10T03:27:02.512Z,125.857
2023-05-10T03:28:02.053Z,134.214
2023-05-10T03:29:04.487Z,144.214
2023-05-10T03:30:04.614Z,153.357
2023-05-10T03:31:04.602Z,164.214
2023-05-10T03:32:05.297Z,174.214
2023-05-10T03:33:07.333Z,185
2023-05-10T03:34:08.575Z,196.714
2023-05-10T03:35:11.797Z,208.357
2023-05-10T03:36:12.826Z,220.857
2023-05-10T03:37:12.716Z,232.5
2023-05-10T03:38:14.059Z,245
2023-05-10T03:39:16.639Z,257.5
2023-05-10T03:40:17.096Z,270
2023-05-10T03:41:18.503Z,283.357
2023-05-10T03:42:19.875Z,295.857
2023-05-10T03:43:20.881Z,309.214
2023-05-10T03:44:22.040Z,322.5
2023-05-10T03:45:24.167Z,335
2023-05-10T03:46:23.909Z,348.357
2023-05-10T03:47:26.363Z,360.857
2023-05-10T03:48:28.429Z,375
2023-05-10T03:49:27.262Z,387.5
2023-05-10T03:50:29.750Z,404.214
2023-05-10T03:51:30.968Z,428.357
2023-05-10T03:52:33.241Z,450
2023-05-10T03:53:34.973Z,460.857
2023-05-10T03:54:36.442Z,462.5
2023-05-10T03:55:36.975Z,472.5
2023-05-10T03:56:38.660Z,490.857
2023-05-10T03:57:40.458Z,505
2023-05-10T03:58:40.992Z,522.5
2023-05-10T03:59:44.093Z,540
2023-05-10T04:00:45.243Z,546.714
2023-05-10T04:01:47.269Z,556.714
2023-05-10T04:02:49.081Z,571.714
2023-05-10T04:03:49.811Z,589.214
2023-05-10T04:04:51.055Z,604.214
2023-05-10T04:05:53.074Z,612.5
2023-05-10T04:06:54.965Z,625
2023-05-10T04:07:56.439Z,637.5
2023-05-10T04:08:58.538Z,651.714
2023-05-10T04:10:00.280Z,664.214
2023-05-10T04:11:01.820Z,675.857
2023-05-10T04:12:03.631Z,685.857
2023-05-10T04:13:04.899Z,698.357
2023-05-10T04:14:07.478Z,710
2023-05-10T04:15:09.471Z,724.214
2023-05-10T04:16:10.853Z,735
2023-05-10T04:17:13.152Z,747.5
2023-05-10T04:18:14.334Z,755.857
2023-05-10T04:19:16.439Z,760.857
2023-05-10T04:20:18.213Z,766.714
2023-05-10T04:21:19.991Z,774.214
2023-05-10T04:22:21.689Z,783.357
2023-05-10T04:23:23.797Z,793.357
2023-05-10T04:24:25.167Z,801.714
2023-05-10T04:25:24.662Z,809.214
2023-05-10T04:26:25.489Z,819.214
2023-05-10T04:27:27.401Z,825.857
2023-05-10T04:28:29.123Z,832.5
2023-05-10T04:29:31.252Z,838.357
2023-05-10T04:30:32.468Z,845
2023-05-10T04:31:33.809Z,849.214
2023-05-10T04:32:33.668Z,854.214
2023-05-10T04:33:36.129Z,858.357
2023-05-10T04:34:37.946Z,861.714
2023-05-10T04:35:38.912Z,865.857
2023-05-10T04:36:41.654Z,871.714
2023-05-10T04:37:43.344Z,870
2023-05-10T04:38:45.167Z,875
2023-05-10T04:39:46.011Z,876.714
2023-05-10T04:40:48.701Z,879.214
2023-05-10T04:41:50.440Z,883.357
2023-05-10T04:42:52.105Z,891.714
2023-05-10T04:43:54.089Z,894.214
2023-05-10T04:44:55.431Z,900
2023-05-10T04:45:58.435Z,920
2023-05-10T04:47:00.206Z,961.714
2023-05-10T04:48:01.441Z,980
2023-05-10T04:49:02.513Z,973.357
2023-05-10T04:50:03.909Z,935.857
2023-05-10T04:51:05.207Z,990
2023-05-10T04:52:06.051Z,1106.71
2023-05-10T04:53:07.866Z,1035
2023-05-10T04:54:08.976Z,994.214
2023-05-10T04:55:11.695Z,1005
2023-05-10T04:56:13.325Z,1057.5
2023-05-10T04:57:15.372Z,1005
2023-05-10T04:58:17.241Z,1000
2023-05-10T04:59:19.138Z,998.357
2023-05-10T05:00:21.324Z,985.857
2023-05-10T05:01:22.643Z,987.5
2023-05-10T05:02:24.729Z,990.857
2023-05-10T05:03:25.986Z,993.357
2023-05-10T05:04:27.840Z,998.357
2023-05-10T05:05:29.806Z,1004.21
2023-05-10T05:06:31.006Z,1011.71
2023-05-10T05:07:33.609Z,1034.21
2023-05-10T05:08:35.653Z,1065
2023-05-10T05:09:37.532Z,1058.36
2023-05-10T05:10:37.417Z,1050.86
2023-05-10T05:11:39.804Z,1135.86
2023-05-10T05:12:41.123Z,1101.71
2023-05-10T05:13:43.235Z,1066.71
2023-05-10T05:14:44.041Z,1076.71
2023-05-10T05:15:45.948Z,1087.5
2023-05-10T05:16:48.287Z,1098.36
2023-05-10T05:17:49.716Z,1106.71
2023-05-10T05:18:50.835Z,1180.86
2023-05-10T05:19:50.835Z,1470
2023-05-10T05:20:52.034Z,1420.86
2023-05-10T05:21:53.404Z,1150
2023-05-10T05:22:53.957Z,1137.5
2023-05-10T05:23:54.498Z,1130
2023-05-10T05:24:55.053Z,1135
2023-05-10T05:25:55.096Z,1159.21
2023-05-10T05:26:55.696Z,1241.71
2023-05-10T05:27:56.967Z,1190.86
2023-05-10T05:28:57.416Z,1310
2023-05-10T05:29:59.175Z,1345
2023-05-10T05:30:59.675Z,1404.21
2023-05-10T05:32:00.857Z,1742.5
2023-05-10T05:33:02.184Z,1849.21
2023-05-10T05:34:02.415Z,1664.21
2023-05-10T05:35:03.393Z,1527.5
2023-05-10T05:36:03.910Z,1411.71
2023-05-10T05:37:04.381Z,1292.5
2023-05-10T05:38:06.351Z,1285.86
2023-05-10T05:39:06.834Z,1292.5
2023-05-10T05:40:06.887Z,1314.21
2023-05-10T05:41:07.950Z,1330
2023-05-10T05:42:10.851Z,1395
2023-05-10T05:43:11.484Z,1407.5
2023-05-10T05:44:14.201Z,1486.71
2023-05-10T05:45:15.132Z,1782.5
2023-05-10T05:46:15.852Z,1890
2023-05-10T05:47:15.083Z,2035.86
2023-05-10T05:48:17.023Z,2413.36
2023-05-10T05:49:17.489Z,2490.86
2023-05-10T05:50:17.774Z,2689.21
2023-05-10T05:51:17.877Z,2776.71
2023-05-10T05:52:18.289Z,2489.21
2023-05-10T05:53:19.630Z,3070
2023-05-10T05:54:20.037Z,3265
2023-05-10T05:55:21.470Z,3041.71
2023-05-10T05:56:22.191Z,3288.36
2023-05-10T05:57:25.562Z,3456.71
2023-05-10T05:58:25.494Z,3951.71
2023-05-10T05:59:26.211Z,4198.36
2023-05-10T06:00:26.779Z,4626.71
2023-05-10T06:01:27.434Z,5557.5
2023-05-10T06:02:27.963Z,5217.5
2023-05-10T06:03:30.750Z,4947.5
2023-05-10T06:04:31.785Z,2753.36
2023-05-10T06:05:32.024Z,2876.71
2023-05-10T06:06:32.858Z,5697.5
2023-05-10T06:07:33.486Z,5340
2023-05-10T06:08:34.853Z,7745
2023-05-10T06:09:35.608Z,7920.86
2023-05-10T06:10:36.731Z,7720
2023-05-10T06:11:36.931Z,7826.71
2023-05-10T06:12:39.321Z,7741.71
2023-05-10T06:13:41.405Z,7740.86
2023-05-10T06:14:43.162Z,7934.21
2023-05-10T06:15:43.324Z,7773.36
2023-05-10T06:16:44.370Z,7835
2023-05-10T06:17:44.525Z,7905
2023-05-10T06:18:45.603Z,7989.21
2023-05-10T06:19:45.549Z,8156.71
2023-05-10T06:20:48.211Z,8340.86
2023-05-10T06:21:48.136Z,8553.36
2023-05-10T06:22:50.893Z,8791.71
2023-05-10T06:23:52.810Z,9024.21
2023-05-10T06:24:52.817Z,9242.5
2023-05-10T06:25:54.224Z,9489.21
2023-05-10T06:26:54.504Z,9699.21
2023-05-10T06:27:54.109Z,9868.36
2023-05-10T06:28:57.569Z,9956.71
2023-05-10T06:30:11.688Z,10060
2023-05-10T06:31:00.403Z,10142.5
2023-05-10T06:32:02.358Z,10215
2023-05-10T06:33:02.831Z,10236.7
2023-05-10T06:34:03.529Z,10262.5
2023-05-10T06:35:05.186Z,10279.2
2023-05-10T06:36:05.383Z,10213.4
2023-05-10T06:37:05.366Z,10040.9
2023-05-10T06:38:07.836Z,9901.71
2023-05-10T06:39:07.084Z,9709.21
2023-05-10T06:40:08.748Z,9482.5
2023-05-10T06:41:08.898Z,9316.71
2023-05-10T06:42:09.071Z,9217.5
2023-05-10T06:43:09.956Z,9275
2023-05-10T06:44:10.718Z,9379.21
2023-05-10T06:45:11.670Z,9574.21
2023-05-10T06:46:12.727Z,9785
2023-05-10T06:47:13.693Z,10026.7
2023-05-10T06:48:13.732Z,10306.7
2023-05-10T06:49:15.234Z,10703.4
2023-05-10T06:50:15.066Z,11254.2
2023-05-10T06:51:15.526Z,11767.5
2023-05-10T06:52:17.456Z,11927.5
2023-05-10T06:53:18.517Z,11660
2023-05-10T06:54:20.482Z,11401.7
2023-05-10T06:55:21.337Z,11268.4
2023-05-10T06:56:22.169Z,11112.5
2023-05-10T06:57:31.105Z,10846.7
2023-05-10T06:58:24.859Z,10547.5
2023-05-10T06:59:27.872Z,10309.2
2023-05-10T07:00:28.788Z,10165
2023-05-10T07:01:28.494Z,10114.2
2023-05-10T07:02:30.201Z,10192.5
2023-05-10T07:03:31.257Z,10239.2
2023-05-10T07:04:31.925Z,10345.9
2023-05-10T07:05:33.067Z,10414.2
2023-05-10T07:06:33.929Z,10443.4
2023-05-10T07:07:34.606Z,10486.7
2023-05-10T07:08:34.336Z,10491.7
2023-05-10T07:09:34.892Z,10450.9
2023-05-10T07:10:36.799Z,10453.4
2023-05-10T07:11:37.182Z,10515
2023-05-10T07:12:39.043Z,10594.2
2023-05-10T07:13:39.863Z,10695.9
2023-05-10T07:14:40.784Z,10773.4
2023-05-10T07:15:41.417Z,10910
2023-05-10T07:16:42.144Z,11052.5
2023-05-10T07:17:44.114Z,11246.7
2023-05-10T07:18:42.350Z,11510
2023-05-10T07:19:44.327Z,11747.5
2023-05-10T07:20:45.947Z,11865.9
2023-05-10T07:21:47.026Z,11950.9
2023-05-10T07:22:48.878Z,12063.4
2023-05-10T07:23:48.874Z,12128.4
2023-05-10T07:24:49.785Z,12158.4
2023-05-10T07:25:51.366Z,12264.2
2023-05-10T07:26:52.291Z,12453.4
2023-05-10T07:27:52.870Z,12641.7
2023-05-10T07:28:54.961Z,12830.9
2023-05-10T07:29:55.560Z,12942.5
2023-05-10T07:30:56.510Z,13086.7
2023-05-10T07:31:58.881Z,13270
2023-05-10T07:32:59.684Z,13360.9
2023-05-10T07:33:59.030Z,13490
2023-05-10T07:35:00.338Z,13710
2023-05-10T07:36:02.650Z,14063.4
2023-05-10T07:37:03.451Z,14527.5
2023-05-10T07:38:05.532Z,15126.7
2023-05-10T07:39:06.562Z,15855.9
2023-05-10T07:40:07.145Z,16813.4
2023-05-10T07:41:09.103Z,17994.2
2023-05-10T07:42:10.986Z,18943.4
2023-05-10T07:43:11.935Z,19655
2023-05-10T07:44:11.936Z,20235.9
2023-05-10T07:45:14.726Z,20422.5
2023-05-10T07:46:16.638Z,20235.9
2023-05-10T07:47:18.715Z,20090
2023-05-10T07:48:18.942Z,16895.9
2023-05-10T07:49:20.170Z,15529.2
2023-05-10T07:50:19.262Z,16178.4
2023-05-10T07:51:20.343Z,21253.4
2023-05-10T07:52:22.424Z,22583.4
2023-05-10T07:53:21.497Z,23393.4
2023-05-10T07:54:21.996Z,25420
2023-05-10T07:55:23.533Z,23567.5
2023-05-10T07:56:24.030Z,10185.9
2023-05-10T07:57:25.932Z,4514.21
2023-05-10T07:58:27.436Z,4394.21
2023-05-10T07:59:27.901Z,7155
2023-05-10T08:00:30.016Z,8810
2023-05-10T08:01:31.087Z,7017.5
2023-05-10T08:02:31.600Z,4115
2023-05-10T08:03:33.213Z,4045.86
2023-05-10T08:04:34.983Z,3583.36
2023-05-10T08:05:37.403Z,4342.5
2023-05-10T08:06:39.080Z,5587.5
2023-05-10T08:07:39.788Z,5596.71
2023-05-10T08:08:41.175Z,5500
2023-05-10T08:09:43.035Z,8482.5
2023-05-10T08:10:44.733Z,8509.21
2023-05-10T08:11:45.623Z,8140
2023-05-10T08:12:45.713Z,11385.9
2023-05-10T08:13:45.920Z,13552.5
2023-05-10T08:14:46.559Z,12305
2023-05-10T08:15:47.434Z,12422.5
2023-05-10T08:16:48.940Z,11142.5
2023-05-10T08:17:49.883Z,10548.4
2023-05-10T08:18:51.159Z,6058.36
2023-05-10T08:19:51.721Z,8051.71
2023-05-10T08:20:52.679Z,3965
2023-05-10T08:21:54.595Z,3990.86
2023-05-10T08:22:55.292Z,9598.36
2023-05-10T08:23:56.495Z,11309.2
2023-05-10T08:24:57.230Z,6230
2023-05-10T08:25:58.707Z,7066.71
2023-05-10T08:26:59.126Z,10273.4
2023-05-10T08:28:00.406Z,9090.86
2023-05-10T08:29:00.784Z,6671.71
2023-05-10T08:30:03.248Z,6271.71
2023-05-10T08:31:04.075Z,4675.86
2023-05-10T08:32:05.315Z,6617.5
2023-05-10T08:33:06.912Z,10043.4
2023-05-10T08:34:07.546Z,11738.4
2023-05-10T08:35:09.181Z,8409.21
2023-05-10T08:36:10.022Z,12859.2
2023-05-10T08:37:11.025Z,17084.2
2023-05-10T08:38:12.071Z,23707.5
2023-05-10T08:39:23.038Z,33202.5
2023-05-10T08:40:15.427Z,31890.9
2023-05-10T08:41:15.849Z,27371.7
2023-05-10T08:42:16.878Z,16350.9
2023-05-10T08:43:16.985Z,9524.21
2023-05-10T08:44:18.632Z,11083.4
2023-05-10T08:45:20.144Z,22457.5
2023-05-10T08:46:22.231Z,20178.4
2023-05-10T08:47:24.105Z,16760.9
2023-05-10T08:48:24.448Z,10542.5
2023-05-10T08:49:26.194Z,5566.71
2023-05-10T08:50:27.727Z,3935
2023-05-10T08:51:29.391Z,10685.9
2023-05-10T08:52:29.938Z,15928.4
2023-05-10T08:53:30.725Z,11557.5
2023-05-10T08:54:32.224Z,3095
2023-05-10T08:55:33.250Z,1925
2023-05-10T08:56:32.400Z,1905
2023-05-10T08:57:32.478Z,1886.71
2023-05-10T08:58:33.635Z,1867.5
2023-05-10T08:59:36.100Z,1858.36
2023-05-10T09:00:37.785Z,1852.5
2023-05-10T09:01:38.734Z,1840
2023-05-10T09:02:38.795Z,1832.5
2023-05-10T09:03:41.077Z,1838.36
2023-05-10T09:04:41.939Z,1834.21
2023-05-10T09:05:42.554Z,1816.71
2023-05-10T09:06:43.513Z,1801.71
2023-05-10T09:07:44.447Z,1774.21
2023-05-10T09:08:44.527Z,1747.5
2023-05-10T09:09:46.137Z,1727.5
2023-05-10T09:10:45.987Z,1718.36
2023-05-10T09:11:47.502Z,1713.36
2023-05-10T09:12:48.156Z,1715
2023-05-10T09:13:50.585Z,1712.5
2023-05-10T09:14:51.664Z,1706.71
2023-05-10T09:15:54.632Z,1707.5
2023-05-10T09:16:55.512Z,1696.71
2023-05-10T09:17:56.031Z,1685
2023-05-10T09:18:57.271Z,1671.71
2023-05-10T09:19:59.370Z,1660
2023-05-10T09:21:01.153Z,1649.21
2023-05-10T09:22:03.169Z,1638.36
2023-05-10T09:23:05.660Z,1624.21
2023-05-10T09:24:06.576Z,1619.21
2023-05-10T09:25:06.865Z,1617.5
2023-05-10T09:26:08.804Z,1619.21
2023-05-10T09:27:08.811Z,1615.86
2023-05-10T09:28:11.704Z,1618.36
2023-05-10T09:29:15.142Z,1622.5
2023-05-10T09:30:14.720Z,1614.21
2023-05-10T09:31:16.721Z,1594.21
2023-05-10T09:32:19.042Z,1580.86
2023-05-10T09:33:21.165Z,1576.71
2023-05-10T09:34:22.535Z,1571.71
2023-05-10T09:35:26.559Z,1564.21
2023-05-10T09:36:26.541Z,1555.86
2023-05-10T09:37:26.988Z,1555
2023-05-10T09:38:27.601Z,1552.5
2023-05-10T09:39:30.130Z,1556.71
2023-05-10T09:40:31.702Z,1554.21
2023-05-10T09:41:32.744Z,1556.71
2023-05-10T09:42:35.085Z,1551.71
2023-05-10T09:43:35.429Z,1535.86
2023-05-10T09:44:35.673Z,1526.71
2023-05-10T09:45:39.199Z,1518.36
2023-05-10T09:46:38.794Z,1513.36
2023-05-10T09:47:40.803Z,1507.5
2023-05-10T09:48:42.349Z,1498.36
2023-05-10T09:49:44.554Z,1499.21
2023-05-10T09:50:45.948Z,1499.21
2023-05-10T09:51:46.207Z,1500
2023-05-10T09:52:47.333Z,1485
2023-05-10T09:53:50.384Z,1469.21
2023-05-10T09:54:52.051Z,1455.86
2023-05-10T09:55:53.753Z,1449.21
2023-05-10T09:56:55.421Z,1447.5
2023-05-10T09:57:57.773Z,1445.86
2023-05-10T09:58:58.668Z,1442.5
2023-05-10T09:59:59.683Z,1435
2023-05-10T10:01:01.741Z,1431.71
2023-05-10T10:02:03.686Z,1429.21
2023-05-10T10:03:04.112Z,1432.5
2023-05-10T10:04:06.834Z,1440
2023-05-10T10:05:08.018Z,1444.21
2023-05-10T10:06:18.887Z,1434.21
2023-05-10T10:07:11.764Z,1417.5
2023-05-10T10:08:12.596Z,1412.5
2023-05-10T10:09:13.344Z,1405.86
2023-05-10T10:10:14.051Z,1407.5
2023-05-10T10:11:15.390Z,1404.21
2023-05-10T10:12:15.383Z,1390.86
2023-05-10T10:13:18.372Z,1389.21
2023-05-10T10:14:19.181Z,1390
2023-05-10T10:15:20.586Z,1392.5
2023-05-10T10:16:22.312Z,1390
2023-05-10T10:17:23.721Z,1378.36
2023-05-10T10:18:26.514Z,1367.5
2023-05-10T10:19:27.130Z,1357.5
2023-05-10T10:20:29.271Z,1344.21
2023-05-10T10:21:30.592Z,1342.5
2023-05-10T10:22:32.115Z,1340.86
2023-05-10T10:23:33.617Z,1328.36
2023-05-10T10:24:34.809Z,1321.71
2023-05-10T10:25:34.668Z,1315
2023-05-10T10:26:35.568Z,1307.5
2023-05-10T10:27:36.604Z,1302.5
2023-05-10T10:28:38.581Z,1300.86
2023-05-10T10:29:39.599Z,1300.86
2023-05-10T10:30:42.788Z,1295
2023-05-10T10:31:44.359Z,1293.36
2023-05-10T10:32:44.890Z,1287.5
2023-05-10T10:33:48.227Z,1284.21
2023-05-10T10:34:48.408Z,1281.71
2023-05-10T10:35:50.317Z,1284.21
2023-05-10T10:36:49.909Z,1288.36
2023-05-10T10:37:52.380Z,1288.36
2023-05-10T10:38:53.544Z,1283.36
2023-05-10T10:39:56.045Z,1280
2023-05-10T10:40:57.900Z,1275.86
2023-05-10T10:41:58.441Z,1270
2023-05-10T10:43:01.034Z,1259.21
2023-05-10T10:44:01.704Z,1253.36
2023-05-10T10:45:03.117Z,1241.71
2023-05-10T10:46:06.251Z,1237.5
2023-05-10T10:47:07.637Z,1236.71
2023-05-10T10:48:07.794Z,1231.71
2023-05-10T10:49:08.526Z,1226.71
2023-05-10T10:50:10.269Z,1221.71
2023-05-10T10:51:13.022Z,1223.36
2023-05-10T10:52:12.540Z,1223.36
2023-05-10T10:53:13.897Z,1220
2023-05-10T10:54:15.384Z,1216.71
2023-05-10T10:55:16.988Z,1212.5
2023-05-10T10:56:16.812Z,1210
2023-05-10T10:57:19.147Z,1205.86
2023-05-10T10:58:20.639Z,1202.5
2023-05-10T10:59:22.684Z,1202.5
2023-05-10T11:00:23.102Z,1201.71
2023-05-10T11:01:24.910Z,1205.86
2023-05-10T11:02:25.298Z,1209.21
2023-05-10T11:03:25.897Z,1210.86
2023-05-10T11:04:27.590Z,1210
2023-05-10T11:05:27.748Z,1204.21
2023-05-10T11:06:28.874Z,1197.5
2023-05-10T11:07:06.345Z,1190
2023-05-10T11:08:06.360Z,1179.21
2023-05-10T11:09:06.369Z,1179.21
2023-05-10T11:10:06.385Z,1185
2023-05-10T11:11:06.375Z,1188.36
2023-05-10T11:12:06.378Z,1187.5
2023-05-10T11:13:06.400Z,1179.21
2023-05-10T11:14:06.385Z,1167.5
2023-05-10T11:15:06.395Z,1164.21
2023-05-10T11:16:06.407Z,1163.36
2023-05-10T11:17:06.491Z,1153.36
2023-05-10T11:18:06.482Z,1145
2023-05-10T11:19:06.540Z,1140.86
2023-05-10T11:20:06.433Z,1138.36
2023-05-10T11:21:06.436Z,1138.36
2023-05-10T11:22:06.456Z,1134.21
2023-05-10T11:23:06.479Z,1129.21
2023-05-10T11:24:06.533Z,1123.36
2023-05-10T11:25:06.472Z,1116.71
2023-05-10T11:26:06.476Z,1115
2023-05-10T11:27:06.490Z,1115
2023-05-10T11:28:06.518Z,1111.71
2023-05-10T11:29:06.526Z,1107.5
2023-05-10T11:30:06.516Z,1101.71
2023-05-10T11:31:06.580Z,1095
2023-05-10T11:32:06.535Z,1091.71
2023-05-10T11:33:06.566Z,1086.71
2023-05-10T11:34:06.555Z,1082.5
2023-05-10T11:35:06.568Z,1078.36
2023-05-10T11:36:06.568Z,1073.36
2023-05-10T11:37:06.585Z,1071.71
2023-05-10T11:38:06.593Z,1070
2023-05-10T11:39:06.618Z,1070
2023-05-10T11:40:06.613Z,1070.86
2023-05-10T11:41:06.631Z,1075.86
2023-05-10T11:42:06.629Z,1079.21
2023-05-10T11:43:06.683Z,1078.36
2023-05-10T11:44:06.649Z,1076.71
2023-05-10T11:45:06.664Z,1073.36
2023-05-10T11:46:06.717Z,1066.71
2023-05-10T11:47:06.674Z,1060
2023-05-10T11:48:06.794Z,1055.86
2023-05-10T11:49:06.689Z,1051.71
2023-05-10T11:50:06.699Z,1044.21
2023-05-10T11:51:06.702Z,1040.86
2023-05-10T11:52:06.711Z,1040
2023-05-10T11:53:06.714Z,1039.21
2023-05-10T11:54:06.732Z,1039.21
2023-05-10T11:55:06.724Z,1036.71
2023-05-10T11:56:06.737Z,1031.71
2023-05-10T11:57:06.754Z,1030
2023-05-10T11:58:06.767Z,1029.21
2023-05-10T11:59:06.784Z,1026.71
2023-05-10T12:00:06.784Z,1022.5
2023-05-10T12:01:06.800Z,1020
2023-05-10T12:02:06.778Z,1020.86
2023-05-10T12:03:06.904Z,1023.36
2023-05-10T12:04:07.090Z,1025
2023-05-10T12:05:06.856Z,1022.5
2023-05-10T12:06:06.814Z,1020
2023-05-10T12:07:06.821Z,1014.21
2023-05-10T12:08:06.833Z,1007.5
2023-05-10T12:09:06.847Z,1005
2023-05-10T12:10:06.852Z,1005.86
2023-05-10T12:11:06.873Z,1006.71
2023-05-10T12:12:06.871Z,1007.5
2023-05-10T12:13:06.878Z,1005
2023-05-10T12:14:06.892Z,998.357
2023-05-10T12:15:06.893Z,992.5
2023-05-10T12:16:06.935Z,989.214
2023-05-10T12:17:06.915Z,985.857
2023-05-10T12:18:06.957Z,984.214
2023-05-10T12:19:06.983Z,980.857
2023-05-10T12:20:06.981Z,976.714
2023-05-10T12:21:06.954Z,970.857
2023-05-10T12:22:06.951Z,963.357
2023-05-10T12:23:06.991Z,958.357
2023-05-10T12:24:06.993Z,953.357
2023-05-10T12:25:06.984Z,946.714
2023-05-10T12:26:07.004Z,942.5
2023-05-10T12:27:07.021Z,939.214
2023-05-10T12:28:07.035Z,937.5
2023-05-10T12:29:07.034Z,940
2023-05-10T12:30:07.061Z,945.857
2023-05-10T12:31:07.067Z,952.5
2023-05-10T12:32:07.120Z,960
2023-05-10T12:33:07.129Z,965.857
2023-05-10T12:34:07.085Z,963.357
2023-05-10T12:35:07.093Z,951.714
2023-05-10T12:36:07.149Z,942.5
2023-05-10T12:37:07.158Z,937.5
2023-05-10T12:38:07.135Z,937.5
2023-05-10T12:39:07.152Z,935.857
2023-05-10T12:40:07.179Z,930
2023-05-10T12:41:07.236Z,924.214
2023-05-10T12:42:07.196Z,922.5
2023-05-10T12:43:07.192Z,925
2023-05-10T12:44:07.203Z,924.214
2023-05-10T12:45:07.216Z,923.357
2023-05-10T12:46:07.288Z,923.357
2023-05-10T12:47:07.304Z,922.5
2023-05-10T12:48:07.275Z,922.5
2023-05-10T12:49:09.337Z,920
2023-05-10T12:50:07.266Z,921.714
2023-05-10T12:51:07.287Z,920
2023-05-10T12:52:07.294Z,919.214
2023-05-10T12:53:07.309Z,920.857
2023-05-10T12:54:07.321Z,921.714
2023-05-10T12:55:07.357Z,922.5
2023-05-10T12:56:07.358Z,920.857
2023-05-10T12:57:07.367Z,920
2023-05-10T12:58:07.376Z,914.214
2023-05-10T12:59:07.409Z,912.5
2023-05-10T13:00:07.406Z,910.857
2023-05-10T13:01:07.434Z,910.857
2023-05-10T13:02:07.429Z,912.5
2023-05-10T13:03:07.479Z,920.857
2023-05-10T13:04:07.495Z,936.714
2023-05-10T13:05:07.531Z,951.714
2023-05-10T13:06:07.489Z,942.5
2023-05-10T13:07:07.500Z,923.357
2023-05-10T13:08:07.512Z,917.5
2023-05-10T13:09:07.542Z,914.214
2023-05-10T13:10:07.551Z,913.357
2023-05-10T13:11:07.571Z,903.357
2023-05-10T13:12:09.423Z,904.214
2023-05-10T13:13:07.600Z,902.5
2023-05-10T13:14:07.622Z,906.714
2023-05-10T13:15:07.647Z,907.5
2023-05-10T13:16:07.671Z,906.714
2023-05-10T13:17:07.750Z,906.714
2023-05-10T13:18:07.738Z,910.857
2023-05-10T13:19:07.778Z,915.857
2023-05-10T13:20:07.730Z,921.714
2023-05-10T13:21:07.759Z,919.214
2023-05-10T13:22:07.786Z,927.5
2023-05-10T13:23:07.795Z,935.857
2023-05-10T13:24:07.824Z,946.714
2023-05-10T13:25:07.844Z,955
2023-05-10T13:26:07.860Z,952.5
2023-05-10T13:27:07.858Z,941.714
2023-05-10T13:28:07.889Z,935
2023-05-10T13:29:07.893Z,940.857
2023-05-10T13:30:07.923Z,946.714
2023-05-10T13:31:07.973Z,945
2023-05-10T13:32:07.956Z,940.857
2023-05-10T13:33:08.022Z,940
2023-05-10T13:34:08.080Z,952.5
2023-05-10T13:35:08.019Z,873.357
2023-05-10T13:36:08.044Z,873.357
2023-05-10T13:37:08.078Z,865.857
2023-05-10T13:38:08.092Z,842.5
2023-05-10T13:39:08.124Z,830
2023-05-10T13:40:08.157Z,873.357
2023-05-10T13:41:08.145Z,974.214
2023-05-10T13:42:08.169Z,1021.71
2023-05-10T13:43:08.182Z,1041.71
2023-05-10T13:44:08.203Z,1057.5
2023-05-10T13:45:08.206Z,1085
2023-05-10T13:46:08.293Z,1129.21
2023-05-10T13:47:08.257Z,1143.36
2023-05-10T13:48:08.390Z,1100
2023-05-10T13:49:08.325Z,1089.21
2023-05-10T13:50:08.470Z,1174.21
2023-05-10T13:51:08.373Z,1375
2023-05-10T13:52:08.400Z,1624.21
2023-05-10T13:53:08.425Z,1780
2023-05-10T13:54:08.449Z,1760.86
2023-05-10T13:55:08.475Z,1615
2023-05-10T13:56:08.489Z,1535
2023-05-10T13:57:08.551Z,1560.86
2023-05-10T13:58:08.537Z,1497.5
2023-05-10T13:59:08.548Z,1445
2023-05-10T14:00:08.570Z,1459.21
2023-05-10T14:01:08.588Z,1600.86
2023-05-10T14:02:08.752Z,1840.86
2023-05-10T14:03:08.709Z,2057.5
2023-05-10T14:04:08.717Z,2057.5
2023-05-10T14:05:08.710Z,2024.21
2023-05-10T14:06:08.723Z,2075.86
2023-05-10T14:07:08.796Z,2074.21
2023-05-10T14:08:08.796Z,1984.21
2023-05-10T14:09:08.799Z,1915
2023-05-10T14:10:08.821Z,1843.36
2023-05-10T14:11:08.861Z,1825
2023-05-10T14:12:08.879Z,1793.36
2023-05-10T14:13:08.920Z,1792.5
2023-05-10T14:14:08.945Z,1728.36
2023-05-10T14:15:08.990Z,1665.86
2023-05-10T14:16:09.025Z,1641.71
2023-05-10T14:17:11.453Z,1669.21
2023-05-10T14:18:09.123Z,1768.36
2023-05-10T14:19:09.129Z,1869.21
2023-05-10T14:20:09.132Z,2013.36
2023-05-10T14:21:09.149Z,2220
2023-05-10T14:22:09.176Z,2419.21
2023-05-10T14:23:11.717Z,2500.86
2023-05-10T14:24:09.209Z,2521.71
2023-05-10T14:25:09.242Z,2510
2023-05-10T14:26:09.273Z,2488.36
2023-05-10T14:27:09.304Z,2554.21
2023-05-10T14:28:09.351Z,2537.5
2023-05-10T14:29:10.754Z,2418.36
2023-05-10T14:30:09.372Z,2320
2023-05-10T14:31:09.398Z,2252.5
2023-05-10T14:32:09.461Z,2290
2023-05-10T14:33:09.494Z,2412.5
2023-05-10T14:34:09.497Z,2522.5
2023-05-10T14:35:12.197Z,2498.36
2023-05-10T14:36:09.552Z,2435.86
2023-05-10T14:37:09.594Z,2366.71
2023-05-10T14:38:09.635Z,2282.5
2023-05-10T14:39:09.660Z,2231.71
2023-05-10T14:40:09.690Z,2152.5
2023-05-10T14:41:11.251Z,2114.21
2023-05-10T14:42:09.790Z,2144.21
2023-05-10T14:43:09.833Z,2173.36
2023-05-10T14:44:09.872Z,2199.21
2023-05-10T14:45:09.903Z,2173.36
2023-05-10T14:46:09.968Z,2172.5
2023-05-10T14:47:11.888Z,2173.36
2023-05-10T14:48:10.012Z,2180
2023-05-10T14:49:10.057Z,2144.21
2023-05-10T14:50:10.096Z,2119.21
2023-05-10T14:51:10.131Z,2023.36
2023-05-10T14:52:10.200Z,1886.71
2023-05-10T14:53:10.232Z,1774.21
2023-05-10T14:54:10.300Z,1660.86
2023-05-10T14:55:10.297Z,1561.71
2023-05-10T14:56:10.325Z,1484.21
2023-05-10T14:57:10.350Z,1401.71
2023-05-10T14:58:10.409Z,1361.71
2023-05-10T14:59:10.448Z,1357.5
2023-05-10T15:00:10.475Z,1388.36
2023-05-10T15:01:10.544Z,1440.86
2023-05-10T15:02:10.577Z,1498.36
2023-05-10T15:03:10.649Z,1500
2023-05-10T15:04:10.627Z,1499.21
2023-05-10T15:05:10.678Z,1509.21
2023-05-10T15:06:10.726Z,1554.21
2023-05-10T15:07:10.766Z,1616.71
2023-05-10T15:08:10.823Z,1690
2023-05-10T15:09:10.859Z,1740.86
2023-05-10T15:10:10.922Z,1734.21
2023-05-10T15:11:10.972Z,1710
2023-05-10T15:12:11.010Z,1693.36
2023-05-10T15:13:11.042Z,1706.71
2023-05-10T15:14:11.085Z,1724.21
2023-05-10T15:15:11.149Z,1782.5
2023-05-10T15:16:11.207Z,1880.86
2023-05-10T15:17:11.231Z,1957.5
2023-05-10T15:18:11.313Z,1964.21
2023-05-10T15:19:11.336Z,1933.36
2023-05-10T15:20:11.363Z,2012.5
2023-05-10T15:21:11.402Z,2001.71